sensor_id;sensor_type;location;lat;lon;timestamp;P1;durP1;ratioP1;P2;durP2;ratioP2
34573;SDS011;20809;49.594;8.734;2023-02-01T00:00:37;6.65;;;4.88;;
34573;SDS011;20809;49.594;8.734;2023-02-01T00:03:38;6.68;;;4.53;;
34573;SDS011;20809;49.594;8.734;2023-02-01T00:06:39;5.15;;;4.05;;
34573;SDS011;20809;49.594;8.734;2023-02-01T00:09:40;7.80;;;4.22;;
34573;SDS011;20809;49.594;8.734;2023-02-01T00:12:41;5.13;;;4.32;;
34573;SDS011;20809;49.594;8.734;2023-02-01T00:15:42;6.05;;;4.47;;
34573;SDS011;20809;49.594;8.734;2023-02-01T00:18:46;6.10;;;4.47;;
34573;SDS011;20809;49.594;8.734;2023-02-01T00:21:48;7.13;;;4.45;;
34573;SDS011;20809;49.594;8.734;2023-02-01T00:24:49;6.18;;;4.72;;
34573;SDS011;20809;49.594;8.734;2023-02-01T00:27:50;6.50;;;4.70;;
34573;SDS011;20809;49.594;8.734;2023-02-01T00:31:01;12.98;;;5.10;;
34573;SDS011;20809;49.594;8.734;2023-02-01T00:34:03;7.45;;;4.85;;
34573;SDS011;20809;49.594;8.734;2023-02-01T00:37:04;8.77;;;5.60;;
34573;SDS011;20809;49.594;8.734;2023-02-01T00:40:05;8.45;;;5.45;;
34573;SDS011;20809;49.594;8.734;2023-02-01T00:43:06;11.65;;;5.95;;
34573;SDS011;20809;49.594;8.734;2023-02-01T00:46:08;8.43;;;5.93;;
34573;SDS011;20809;49.594;8.734;2023-02-01T00:49:09;11.15;;;5.60;;
34573;SDS011;20809;49.594;8.734;2023-02-01T00:52:10;10.60;;;5.63;;
34573;SDS011;20809;49.594;8.734;2023-02-01T00:55:11;7.65;;;5.57;;
34573;SDS011;20809;49.594;8.734;2023-02-01T00:58:12;11.65;;;6.35;;
34573;SDS011;20809;49.594;8.734;2023-02-01T01:01:15;12.32;;;6.97;;
34573;SDS011;20809;49.594;8.734;2023-02-01T01:04:22;6.68;;;5.20;;
34573;SDS011;20809;49.594;8.734;2023-02-01T01:07:23;8.90;;;5.50;;
34573;SDS011;20809;49.594;8.734;2023-02-01T01:10:24;6.18;;;5.18;;
34573;SDS011;20809;49.594;8.734;2023-02-01T01:13:24;6.65;;;5.18;;
34573;SDS011;20809;49.594;8.734;2023-02-01T01:16:26;9.20;;;6.07;;
34573;SDS011;20809;49.594;8.734;2023-02-01T01:19:29;8.27;;;5.82;;
34573;SDS011;20809;49.594;8.734;2023-02-01T01:22:29;7.00;;;5.22;;
34573;SDS011;20809;49.594;8.734;2023-02-01T01:25:30;8.57;;;5.63;;
34573;SDS011;20809;49.594;8.734;2023-02-01T01:28:31;8.32;;;5.32;;
34573;SDS011;20809;49.594;8.734;2023-02-01T01:31:34;8.73;;;4.70;;
34573;SDS011;20809;49.594;8.734;2023-02-01T01:34:35;10.43;;;6.10;;
34573;SDS011;20809;49.594;8.734;2023-02-01T01:37:36;10.63;;;6.20;;
34573;SDS011;20809;49.594;8.734;2023-02-01T01:40:44;6.93;;;5.05;;
34573;SDS011;20809;49.594;8.734;2023-02-01T01:43:53;7.82;;;5.53;;
34573;SDS011;20809;49.594;8.734;2023-02-01T01:46:55;6.05;;;5.45;;
34573;SDS011;20809;49.594;8.734;2023-02-01T01:49:56;8.95;;;5.68;;
34573;SDS011;20809;49.594;8.734;2023-02-01T01:52:57;6.72;;;5.25;;
34573;SDS011;20809;49.594;8.734;2023-02-01T01:59:07;8.43;;;5.90;;
34573;SDS011;20809;49.594;8.734;2023-02-01T02:02:09;11.68;;;7.18;;
34573;SDS011;20809;49.594;8.734;2023-02-01T02:05:11;9.93;;;6.60;;
34573;SDS011;20809;49.594;8.734;2023-02-01T02:08:16;10.40;;;6.75;;
34573;SDS011;20809;49.594;8.734;2023-02-01T02:11:20;6.70;;;5.63;;
34573;SDS011;20809;49.594;8.734;2023-02-01T02:20:45;8.80;;;5.93;;
34573;SDS011;20809;49.594;8.734;2023-02-01T02:27:32;9.40;;;6.55;;
34573;SDS011;20809;49.594;8.734;2023-02-01T02:34:12;8.45;;;5.70;;
34573;SDS011;20809;49.594;8.734;2023-02-01T02:41:01;11.20;;;7.70;;
34573;SDS011;20809;49.594;8.734;2023-02-01T02:44:04;6.80;;;5.07;;
34573;SDS011;20809;49.594;8.734;2023-02-01T02:54:43;7.57;;;5.13;;
34573;SDS011;20809;49.594;8.734;2023-02-01T02:57:47;8.98;;;5.72;;
34573;SDS011;20809;49.594;8.734;2023-02-01T03:01:07;13.25;;;5.35;;
34573;SDS011;20809;49.594;8.734;2023-02-01T03:04:26;9.40;;;5.43;;
34573;SDS011;20809;49.594;8.734;2023-02-01T03:07:49;7.30;;;5.57;;
34573;SDS011;20809;49.594;8.734;2023-02-01T03:14:01;7.95;;;4.78;;
34573;SDS011;20809;49.594;8.734;2023-02-01T03:17:12;10.15;;;6.95;;
34573;SDS011;20809;49.594;8.734;2023-02-01T03:20:18;7.93;;;5.15;;
34573;SDS011;20809;49.594;8.734;2023-02-01T03:23:20;8.55;;;6.28;;
34573;SDS011;20809;49.594;8.734;2023-02-01T03:26:26;7.15;;;6.05;;
34573;SDS011;20809;49.594;8.734;2023-02-01T03:29:33;16.25;;;5.80;;
34573;SDS011;20809;49.594;8.734;2023-02-01T03:32:43;8.07;;;5.90;;
34573;SDS011;20809;49.594;8.734;2023-02-01T03:45:52;10.30;;;6.05;;
34573;SDS011;20809;49.594;8.734;2023-02-01T03:49:01;8.23;;;5.80;;
34573;SDS011;20809;49.594;8.734;2023-02-01T03:52:06;7.30;;;5.50;;
34573;SDS011;20809;49.594;8.734;2023-02-01T03:55:10;13.43;;;6.57;;
34573;SDS011;20809;49.594;8.734;2023-02-01T03:58:16;7.60;;;6.32;;
34573;SDS011;20809;49.594;8.734;2023-02-01T04:01:20;8.48;;;5.70;;
34573;SDS011;20809;49.594;8.734;2023-02-01T04:04:20;8.90;;;5.55;;
34573;SDS011;20809;49.594;8.734;2023-02-01T04:07:21;9.57;;;5.97;;
34573;SDS011;20809;49.594;8.734;2023-02-01T04:10:22;11.07;;;6.25;;
34573;SDS011;20809;49.594;8.734;2023-02-01T04:16:24;13.60;;;6.63;;
34573;SDS011;20809;49.594;8.734;2023-02-01T04:19:25;10.73;;;6.03;;
34573;SDS011;20809;49.594;8.734;2023-02-01T04:22:26;9.60;;;6.47;;
34573;SDS011;20809;49.594;8.734;2023-02-01T04:25:27;10.50;;;6.85;;
34573;SDS011;20809;49.594;8.734;2023-02-01T04:28:28;8.70;;;6.25;;
34573;SDS011;20809;49.594;8.734;2023-02-01T04:34:30;11.50;;;7.20;;
34573;SDS011;20809;49.594;8.734;2023-02-01T04:37:31;13.23;;;6.60;;
34573;SDS011;20809;49.594;8.734;2023-02-01T04:40:31;15.02;;;6.90;;
34573;SDS011;20809;49.594;8.734;2023-02-01T04:43:32;10.57;;;7.65;;
34573;SDS011;20809;49.594;8.734;2023-02-01T04:46:33;14.45;;;7.30;;
34573;SDS011;20809;49.594;8.734;2023-02-01T04:49:34;14.82;;;7.93;;
34573;SDS011;20809;49.594;8.734;2023-02-01T04:52:35;12.98;;;7.97;;
34573;SDS011;20809;49.594;8.734;2023-02-01T04:55:37;13.02;;;8.15;;
34573;SDS011;20809;49.594;8.734;2023-02-01T04:58:38;13.80;;;8.10;;
34573;SDS011;20809;49.594;8.734;2023-02-01T05:01:39;17.38;;;8.82;;
34573;SDS011;20809;49.594;8.734;2023-02-01T05:04:40;13.75;;;8.20;;
34573;SDS011;20809;49.594;8.734;2023-02-01T05:07:41;13.75;;;7.43;;
34573;SDS011;20809;49.594;8.734;2023-02-01T05:10:42;11.88;;;7.32;;
34573;SDS011;20809;49.594;8.734;2023-02-01T05:13:44;14.25;;;7.65;;
34573;SDS011;20809;49.594;8.734;2023-02-01T05:16:48;11.02;;;6.88;;
34573;SDS011;20809;49.594;8.734;2023-02-01T05:19:49;11.85;;;6.88;;
34573;SDS011;20809;49.594;8.734;2023-02-01T05:22:50;14.40;;;5.60;;
34573;SDS011;20809;49.594;8.734;2023-02-01T05:25:51;9.07;;;5.80;;
34573;SDS011;20809;49.594;8.734;2023-02-01T05:28:52;9.90;;;4.43;;
34573;SDS011;20809;49.594;8.734;2023-02-01T05:31:53;7.15;;;4.53;;
34573;SDS011;20809;49.594;8.734;2023-02-01T05:34:54;8.43;;;4.85;;
34573;SDS011;20809;49.594;8.734;2023-02-01T05:37:55;4.55;;;3.65;;
34573;SDS011;20809;49.594;8.734;2023-02-01T05:40:56;10.93;;;5.18;;
34573;SDS011;20809;49.594;8.734;2023-02-01T05:43:57;8.90;;;4.70;;
34573;SDS011;20809;49.594;8.734;2023-02-01T05:46:57;10.93;;;6.30;;
34573;SDS011;20809;49.594;8.734;2023-02-01T05:49:58;9.88;;;6.20;;
34573;SDS011;20809;49.594;8.734;2023-02-01T05:52:59;13.85;;;8.10;;
34573;SDS011;20809;49.594;8.734;2023-02-01T05:56:00;13.32;;;9.45;;
34573;SDS011;20809;49.594;8.734;2023-02-01T05:59:00;15.63;;;10.15;;
34573;SDS011;20809;49.594;8.734;2023-02-01T06:02:01;21.92;;;10.70;;
34573;SDS011;20809;49.594;8.734;2023-02-01T06:05:02;22.63;;;11.35;;
34573;SDS011;20809;49.594;8.734;2023-02-01T06:08:03;17.40;;;10.48;;
34573;SDS011;20809;49.594;8.734;2023-02-01T06:11:04;19.60;;;11.45;;
34573;SDS011;20809;49.594;8.734;2023-02-01T06:14:05;20.02;;;10.00;;
34573;SDS011;20809;49.594;8.734;2023-02-01T06:17:07;18.30;;;9.32;;
34573;SDS011;20809;49.594;8.734;2023-02-01T06:20:09;22.40;;;9.27;;
34573;SDS011;20809;49.594;8.734;2023-02-01T06:23:11;18.55;;;8.95;;
34573;SDS011;20809;49.594;8.734;2023-02-01T06:26:11;17.55;;;8.35;;
34573;SDS011;20809;49.594;8.734;2023-02-01T06:29:12;16.85;;;9.68;;
34573;SDS011;20809;49.594;8.734;2023-02-01T06:32:13;18.80;;;8.30;;
34573;SDS011;20809;49.594;8.734;2023-02-01T06:35:14;13.45;;;7.95;;
34573;SDS011;20809;49.594;8.734;2023-02-01T06:38:16;19.15;;;9.82;;
34573;SDS011;20809;49.594;8.734;2023-02-01T06:41:17;14.07;;;8.13;;
34573;SDS011;20809;49.594;8.734;2023-02-01T06:44:20;17.75;;;7.95;;
34573;SDS011;20809;49.594;8.734;2023-02-01T06:47:21;14.25;;;9.00;;
34573;SDS011;20809;49.594;8.734;2023-02-01T06:50:21;21.52;;;10.77;;
34573;SDS011;20809;49.594;8.734;2023-02-01T06:53:23;19.45;;;11.93;;
34573;SDS011;20809;49.594;8.734;2023-02-01T06:56:24;15.27;;;9.75;;
34573;SDS011;20809;49.594;8.734;2023-02-01T06:59:25;17.33;;;10.25;;
34573;SDS011;20809;49.594;8.734;2023-02-01T07:02:25;17.52;;;10.40;;
34573;SDS011;20809;49.594;8.734;2023-02-01T07:05:26;17.73;;;9.75;;
34573;SDS011;20809;49.594;8.734;2023-02-01T07:08:28;19.45;;;8.45;;
34573;SDS011;20809;49.594;8.734;2023-02-01T07:11:30;17.85;;;9.43;;
34573;SDS011;20809;49.594;8.734;2023-02-01T07:14:30;13.10;;;7.50;;
34573;SDS011;20809;49.594;8.734;2023-02-01T07:17:31;12.60;;;8.05;;
34573;SDS011;20809;49.594;8.734;2023-02-01T07:20:33;16.63;;;9.80;;
34573;SDS011;20809;49.594;8.734;2023-02-01T07:23:35;15.48;;;7.78;;
34573;SDS011;20809;49.594;8.734;2023-02-01T07:26:39;14.05;;;7.80;;
34573;SDS011;20809;49.594;8.734;2023-02-01T07:29:39;11.15;;;7.40;;
34573;SDS011;20809;49.594;8.734;2023-02-01T07:32:40;14.10;;;7.97;;
34573;SDS011;20809;49.594;8.734;2023-02-01T07:35:41;12.77;;;7.78;;
34573;SDS011;20809;49.594;8.734;2023-02-01T07:38:42;14.80;;;7.70;;
34573;SDS011;20809;49.594;8.734;2023-02-01T07:41:43;14.27;;;8.82;;
34573;SDS011;20809;49.594;8.734;2023-02-01T07:44:44;13.82;;;8.18;;
34573;SDS011;20809;49.594;8.734;2023-02-01T07:47:44;13.77;;;7.85;;
34573;SDS011;20809;49.594;8.734;2023-02-01T07:50:45;17.77;;;10.82;;
34573;SDS011;20809;49.594;8.734;2023-02-01T07:53:46;16.08;;;8.98;;
34573;SDS011;20809;49.594;8.734;2023-02-01T07:56:47;20.60;;;11.20;;
34573;SDS011;20809;49.594;8.734;2023-02-01T07:59:51;19.17;;;8.05;;
34573;SDS011;20809;49.594;8.734;2023-02-01T08:03:10;15.75;;;8.32;;
34573;SDS011;20809;49.594;8.734;2023-02-01T08:06:14;18.30;;;10.15;;
34573;SDS011;20809;49.594;8.734;2023-02-01T08:09:15;19.70;;;11.57;;
34573;SDS011;20809;49.594;8.734;2023-02-01T08:12:16;17.48;;;8.60;;
34573;SDS011;20809;49.594;8.734;2023-02-01T08:15:17;21.38;;;10.68;;
34573;SDS011;20809;49.594;8.734;2023-02-01T08:18:18;15.48;;;7.05;;
34573;SDS011;20809;49.594;8.734;2023-02-01T08:21:25;18.73;;;7.53;;
34573;SDS011;20809;49.594;8.734;2023-02-01T08:24:36;12.18;;;6.45;;
34573;SDS011;20809;49.594;8.734;2023-02-01T08:27:39;15.32;;;6.13;;
34573;SDS011;20809;49.594;8.734;2023-02-01T08:30:40;14.32;;;5.40;;
34573;SDS011;20809;49.594;8.734;2023-02-01T08:33:47;11.00;;;5.10;;
34573;SDS011;20809;49.594;8.734;2023-02-01T08:36:55;13.05;;;5.55;;
34573;SDS011;20809;49.594;8.734;2023-02-01T08:39:59;13.90;;;5.32;;
34573;SDS011;20809;49.594;8.734;2023-02-01T08:43:00;8.25;;;5.10;;
34573;SDS011;20809;49.594;8.734;2023-02-01T08:46:02;11.00;;;4.82;;
34573;SDS011;20809;49.594;8.734;2023-02-01T08:49:04;13.73;;;4.80;;
34573;SDS011;20809;49.594;8.734;2023-02-01T08:52:05;7.95;;;4.28;;
34573;SDS011;20809;49.594;8.734;2023-02-01T08:55:06;16.15;;;6.10;;
34573;SDS011;20809;49.594;8.734;2023-02-01T09:01:12;19.50;;;4.83;;
34573;SDS011;20809;49.594;8.734;2023-02-01T09:04:15;10.73;;;4.35;;
34573;SDS011;20809;49.594;8.734;2023-02-01T09:07:16;10.60;;;4.45;;
34573;SDS011;20809;49.594;8.734;2023-02-01T09:10:17;12.52;;;3.78;;
34573;SDS011;20809;49.594;8.734;2023-02-01T09:13:18;11.95;;;3.97;;
34573;SDS011;20809;49.594;8.734;2023-02-01T09:16:20;8.98;;;3.40;;
34573;SDS011;20809;49.594;8.734;2023-02-01T09:19:20;12.68;;;3.85;;
34573;SDS011;20809;49.594;8.734;2023-02-01T09:22:21;9.63;;;4.22;;
34573;SDS011;20809;49.594;8.734;2023-02-01T09:25:25;13.82;;;4.68;;
34573;SDS011;20809;49.594;8.734;2023-02-01T09:28:26;13.10;;;4.57;;
34573;SDS011;20809;49.594;8.734;2023-02-01T09:31:27;15.98;;;4.60;;
34573;SDS011;20809;49.594;8.734;2023-02-01T09:34:28;16.50;;;5.05;;
34573;SDS011;20809;49.594;8.734;2023-02-01T09:37:42;12.10;;;5.13;;
34573;SDS011;20809;49.594;8.734;2023-02-01T09:40:45;13.88;;;4.90;;
34573;SDS011;20809;49.594;8.734;2023-02-01T09:47:17;17.33;;;7.50;;
34573;SDS011;20809;49.594;8.734;2023-02-01T09:50:36;17.83;;;5.78;;
34573;SDS011;20809;49.594;8.734;2023-02-01T09:53:56;12.98;;;5.40;;
34573;SDS011;20809;49.594;8.734;2023-02-01T09:57:08;14.85;;;5.60;;
34573;SDS011;20809;49.594;8.734;2023-02-01T10:00:23;16.15;;;4.95;;
34573;SDS011;20809;49.594;8.734;2023-02-01T10:03:32;15.48;;;6.05;;
34573;SDS011;20809;49.594;8.734;2023-02-01T10:16:34;13.00;;;4.53;;
34573;SDS011;20809;49.594;8.734;2023-02-01T10:19:48;11.27;;;2.83;;
34573;SDS011;20809;49.594;8.734;2023-02-01T10:26:36;13.63;;;2.90;;
34573;SDS011;20809;49.594;8.734;2023-02-01T10:29:43;8.50;;;3.30;;
34573;SDS011;20809;49.594;8.734;2023-02-01T10:32:47;10.88;;;2.55;;
34573;SDS011;20809;49.594;8.734;2023-02-01T10:36:03;11.48;;;2.63;;
34573;SDS011;20809;49.594;8.734;2023-02-01T10:39:14;8.13;;;2.20;;
34573;SDS011;20809;49.594;8.734;2023-02-01T10:42:18;9.70;;;2.67;;
34573;SDS011;20809;49.594;8.734;2023-02-01T10:45:25;11.52;;;3.33;;
34573;SDS011;20809;49.594;8.734;2023-02-01T10:48:27;9.10;;;2.35;;
34573;SDS011;20809;49.594;8.734;2023-02-01T10:52:33;12.88;;;3.30;;
34573;SDS011;20809;49.594;8.734;2023-02-01T10:55:28;9.45;;;2.30;;
34573;SDS011;20809;49.594;8.734;2023-02-01T10:58:52;17.02;;;5.00;;
34573;SDS011;20809;49.594;8.734;2023-02-01T11:02:19;10.65;;;2.97;;
34573;SDS011;20809;49.594;8.734;2023-02-01T11:05:44;16.13;;;2.65;;
34573;SDS011;20809;49.594;8.734;2023-02-01T11:08:49;12.90;;;2.25;;
34573;SDS011;20809;49.594;8.734;2023-02-01T11:11:54;12.38;;;2.55;;
34573;SDS011;20809;49.594;8.734;2023-02-01T11:14:58;16.27;;;3.22;;
34573;SDS011;20809;49.594;8.734;2023-02-01T11:18:25;12.38;;;2.67;;
34573;SDS011;20809;49.594;8.734;2023-02-01T11:21:28;15.98;;;5.20;;
34573;SDS011;20809;49.594;8.734;2023-02-01T11:24:31;11.13;;;2.92;;
34573;SDS011;20809;49.594;8.734;2023-02-01T11:27:35;14.38;;;2.63;;
34573;SDS011;20809;49.594;8.734;2023-02-01T11:30:38;13.02;;;2.40;;
34573;SDS011;20809;49.594;8.734;2023-02-01T11:33:48;13.05;;;2.78;;
34573;SDS011;20809;49.594;8.734;2023-02-01T11:36:54;14.48;;;3.17;;
34573;SDS011;20809;49.594;8.734;2023-02-01T11:43:27;8.15;;;2.80;;
34573;SDS011;20809;49.594;8.734;2023-02-01T11:46:32;17.02;;;4.40;;
34573;SDS011;20809;49.594;8.734;2023-02-01T11:49:34;12.25;;;3.00;;
34573;SDS011;20809;49.594;8.734;2023-02-01T12:22:36;10.30;;;1.98;;
34573;SDS011;20809;49.594;8.734;2023-02-01T12:43:38;14.80;;;2.30;;
34573;SDS011;20809;49.594;8.734;2023-02-01T12:46:57;13.07;;;2.03;;
34573;SDS011;20809;49.594;8.734;2023-02-01T12:50:02;8.45;;;3.45;;
34573;SDS011;20809;49.594;8.734;2023-02-01T12:53:24;15.90;;;3.88;;
34573;SDS011;20809;49.594;8.734;2023-02-01T12:59:42;8.23;;;2.40;;
34573;SDS011;20809;49.594;8.734;2023-02-01T13:06:08;18.80;;;2.67;;
34573;SDS011;20809;49.594;8.734;2023-02-01T13:10:02;14.20;;;2.13;;
34573;SDS011;20809;49.594;8.734;2023-02-01T13:12:51;13.20;;;2.83;;
34573;SDS011;20809;49.594;8.734;2023-02-01T13:15:58;7.93;;;2.17;;
34573;SDS011;20809;49.594;8.734;2023-02-01T13:22:39;14.90;;;3.05;;
34573;SDS011;20809;49.594;8.734;2023-02-01T13:25:46;13.80;;;2.70;;
34573;SDS011;20809;49.594;8.734;2023-02-01T13:35:37;10.00;;;2.30;;
34573;SDS011;20809;49.594;8.734;2023-02-01T13:42:21;6.03;;;1.73;;
34573;SDS011;20809;49.594;8.734;2023-02-01T13:45:29;8.43;;;2.70;;
34573;SDS011;20809;49.594;8.734;2023-02-01T13:48:37;13.63;;;2.42;;
34573;SDS011;20809;49.594;8.734;2023-02-01T13:51:42;14.27;;;2.65;;
34573;SDS011;20809;49.594;8.734;2023-02-01T13:54:46;11.80;;;3.17;;
34573;SDS011;20809;49.594;8.734;2023-02-01T14:08:36;12.25;;;2.15;;
34573;SDS011;20809;49.594;8.734;2023-02-01T14:11:39;7.72;;;2.50;;
34573;SDS011;20809;49.594;8.734;2023-02-01T14:14:44;6.63;;;2.20;;
34573;SDS011;20809;49.594;8.734;2023-02-01T14:17:45;12.32;;;2.50;;
34573;SDS011;20809;49.594;8.734;2023-02-01T14:20:46;8.98;;;2.10;;
34573;SDS011;20809;49.594;8.734;2023-02-01T14:26:57;9.73;;;2.22;;
34573;SDS011;20809;49.594;8.734;2023-02-01T14:30:02;12.48;;;3.05;;
34573;SDS011;20809;49.594;8.734;2023-02-01T14:33:11;12.15;;;2.40;;
34573;SDS011;20809;49.594;8.734;2023-02-01T14:36:18;7.50;;;2.35;;
34573;SDS011;20809;49.594;8.734;2023-02-01T14:39:30;8.05;;;2.08;;
34573;SDS011;20809;49.594;8.734;2023-02-01T14:43:03;14.90;;;2.42;;
34573;SDS011;20809;49.594;8.734;2023-02-01T14:46:10;14.07;;;2.42;;
34573;SDS011;20809;49.594;8.734;2023-02-01T14:49:11;8.82;;;2.53;;
34573;SDS011;20809;49.594;8.734;2023-02-01T14:52:15;8.15;;;2.55;;
34573;SDS011;20809;49.594;8.734;2023-02-01T14:55:24;11.75;;;3.22;;
34573;SDS011;20809;49.594;8.734;2023-02-01T14:58:55;14.50;;;3.78;;
34573;SDS011;20809;49.594;8.734;2023-02-01T15:02:20;9.32;;;3.22;;
34573;SDS011;20809;49.594;8.734;2023-02-01T15:05:28;6.45;;;2.00;;
34573;SDS011;20809;49.594;8.734;2023-02-01T15:08:32;12.68;;;3.33;;
34573;SDS011;20809;49.594;8.734;2023-02-01T15:18:16;9.35;;;2.00;;
34573;SDS011;20809;49.594;8.734;2023-02-01T15:21:20;9.95;;;1.95;;
34573;SDS011;20809;49.594;8.734;2023-02-01T15:24:23;6.57;;;2.15;;
34573;SDS011;20809;49.594;8.734;2023-02-01T15:27:29;10.60;;;2.08;;
34573;SDS011;20809;49.594;8.734;2023-02-01T15:30:32;6.20;;;1.98;;
34573;SDS011;20809;49.594;8.734;2023-02-01T15:33:34;7.40;;;1.85;;
34573;SDS011;20809;49.594;8.734;2023-02-01T15:36:35;7.85;;;1.75;;
34573;SDS011;20809;49.594;8.734;2023-02-01T15:39:37;10.98;;;3.15;;
34573;SDS011;20809;49.594;8.734;2023-02-01T15:43:03;8.68;;;1.85;;
34573;SDS011;20809;49.594;8.734;2023-02-01T15:46:07;7.80;;;2.13;;
34573;SDS011;20809;49.594;8.734;2023-02-01T15:52:35;8.80;;;2.40;;
34573;SDS011;20809;49.594;8.734;2023-02-01T15:55:40;10.60;;;2.40;;
34573;SDS011;20809;49.594;8.734;2023-02-01T15:58:42;11.85;;;3.00;;
34573;SDS011;20809;49.594;8.734;2023-02-01T16:01:48;7.95;;;2.00;;
34573;SDS011;20809;49.594;8.734;2023-02-01T16:04:49;11.77;;;2.33;;
34573;SDS011;20809;49.594;8.734;2023-02-01T16:14:07;11.68;;;2.00;;
34573;SDS011;20809;49.594;8.734;2023-02-01T16:17:08;11.20;;;2.30;;
34573;SDS011;20809;49.594;8.734;2023-02-01T16:23:10;10.07;;;2.30;;
34573;SDS011;20809;49.594;8.734;2023-02-01T16:26:14;13.38;;;2.65;;
34573;SDS011;20809;49.594;8.734;2023-02-01T16:29:15;14.00;;;1.73;;
34573;SDS011;20809;49.594;8.734;2023-02-01T16:32:17;13.63;;;2.30;;
34573;SDS011;20809;49.594;8.734;2023-02-01T16:38:28;12.00;;;2.63;;
34573;SDS011;20809;49.594;8.734;2023-02-01T16:41:30;8.23;;;2.13;;
34573;SDS011;20809;49.594;8.734;2023-02-01T16:44:31;12.93;;;2.35;;
34573;SDS011;20809;49.594;8.734;2023-02-01T16:47:31;10.38;;;1.75;;
34573;SDS011;20809;49.594;8.734;2023-02-01T16:50:33;8.75;;;1.98;;
34573;SDS011;20809;49.594;8.734;2023-02-01T16:53:34;11.38;;;2.53;;
34573;SDS011;20809;49.594;8.734;2023-02-01T16:56:35;7.53;;;2.20;;
34573;SDS011;20809;49.594;8.734;2023-02-01T16:59:37;9.25;;;2.63;;
34573;SDS011;20809;49.594;8.734;2023-02-01T17:02:37;10.27;;;2.63;;
34573;SDS011;20809;49.594;8.734;2023-02-01T17:05:38;11.60;;;2.15;;
34573;SDS011;20809;49.594;8.734;2023-02-01T17:08:40;13.20;;;2.95;;
34573;SDS011;20809;49.594;8.734;2023-02-01T17:11:43;10.15;;;2.47;;
34573;SDS011;20809;49.594;8.734;2023-02-01T17:14:44;12.77;;;3.90;;
34573;SDS011;20809;49.594;8.734;2023-02-01T17:17:44;10.43;;;2.80;;
34573;SDS011;20809;49.594;8.734;2023-02-01T17:20:45;17.17;;;3.47;;
34573;SDS011;20809;49.594;8.734;2023-02-01T17:23:47;11.43;;;2.80;;
34573;SDS011;20809;49.594;8.734;2023-02-01T17:26:48;10.43;;;2.40;;
34573;SDS011;20809;49.594;8.734;2023-02-01T17:29:50;13.57;;;3.22;;
34573;SDS011;20809;49.594;8.734;2023-02-01T17:32:52;20.60;;;3.35;;
34573;SDS011;20809;49.594;8.734;2023-02-01T17:35:56;14.30;;;3.65;;
34573;SDS011;20809;49.594;8.734;2023-02-01T17:38:57;10.57;;;2.63;;
34573;SDS011;20809;49.594;8.734;2023-02-01T17:41:58;9.75;;;2.92;;
34573;SDS011;20809;49.594;8.734;2023-02-01T17:45:01;15.40;;;3.80;;
34573;SDS011;20809;49.594;8.734;2023-02-01T17:48:22;14.73;;;3.20;;
34573;SDS011;20809;49.594;8.734;2023-02-01T17:51:24;16.90;;;4.13;;
34573;SDS011;20809;49.594;8.734;2023-02-01T17:54:26;19.83;;;3.47;;
34573;SDS011;20809;49.594;8.734;2023-02-01T17:57:27;14.65;;;3.65;;
34573;SDS011;20809;49.594;8.734;2023-02-01T18:00:28;22.42;;;5.03;;
34573;SDS011;20809;49.594;8.734;2023-02-01T18:03:29;12.38;;;2.28;;
34573;SDS011;20809;49.594;8.734;2023-02-01T18:06:33;11.20;;;3.08;;
34573;SDS011;20809;49.594;8.734;2023-02-01T18:09:34;13.60;;;3.28;;
34573;SDS011;20809;49.594;8.734;2023-02-01T18:12:35;13.82;;;2.65;;
34573;SDS011;20809;49.594;8.734;2023-02-01T18:15:36;9.90;;;2.42;;
34573;SDS011;20809;49.594;8.734;2023-02-01T18:18:38;10.98;;;3.15;;
34573;SDS011;20809;49.594;8.734;2023-02-01T18:21:40;12.85;;;2.67;;
34573;SDS011;20809;49.594;8.734;2023-02-01T18:24:42;8.27;;;3.22;;
34573;SDS011;20809;49.594;8.734;2023-02-01T18:27:43;10.05;;;3.10;;
34573;SDS011;20809;49.594;8.734;2023-02-01T18:30:45;10.57;;;2.53;;
34573;SDS011;20809;49.594;8.734;2023-02-01T18:33:48;12.10;;;2.20;;
34573;SDS011;20809;49.594;8.734;2023-02-01T18:36:50;16.63;;;3.53;;
34573;SDS011;20809;49.594;8.734;2023-02-01T18:42:52;11.97;;;2.30;;
34573;SDS011;20809;49.594;8.734;2023-02-01T18:45:52;13.93;;;3.08;;
34573;SDS011;20809;49.594;8.734;2023-02-01T18:48:54;6.18;;;2.20;;
34573;SDS011;20809;49.594;8.734;2023-02-01T18:51:55;12.80;;;3.55;;
34573;SDS011;20809;49.594;8.734;2023-02-01T18:54:55;10.20;;;2.17;;
34573;SDS011;20809;49.594;8.734;2023-02-01T18:57:57;21.05;;;3.83;;
34573;SDS011;20809;49.594;8.734;2023-02-01T19:01:06;9.43;;;3.58;;
34573;SDS011;20809;49.594;8.734;2023-02-01T19:04:08;17.58;;;5.60;;
34573;SDS011;20809;49.594;8.734;2023-02-01T19:07:09;8.73;;;2.70;;
34573;SDS011;20809;49.594;8.734;2023-02-01T19:10:11;32.70;;;4.88;;
34573;SDS011;20809;49.594;8.734;2023-02-01T19:13:17;13.70;;;2.50;;
34573;SDS011;20809;49.594;8.734;2023-02-01T19:16:22;13.35;;;3.05;;
34573;SDS011;20809;49.594;8.734;2023-02-01T19:19:23;9.68;;;2.60;;
34573;SDS011;20809;49.594;8.734;2023-02-01T19:22:24;12.95;;;2.38;;
34573;SDS011;20809;49.594;8.734;2023-02-01T19:28:27;15.70;;;3.40;;
34573;SDS011;20809;49.594;8.734;2023-02-01T19:31:28;10.77;;;2.55;;
34573;SDS011;20809;49.594;8.734;2023-02-01T19:34:28;12.45;;;2.42;;
34573;SDS011;20809;49.594;8.734;2023-02-01T19:37:29;9.63;;;2.75;;
34573;SDS011;20809;49.594;8.734;2023-02-01T19:40:30;8.75;;;2.30;;
34573;SDS011;20809;49.594;8.734;2023-02-01T19:43:31;10.18;;;2.38;;
34573;SDS011;20809;49.594;8.734;2023-02-01T19:46:36;28.55;;;4.13;;
34573;SDS011;20809;49.594;8.734;2023-02-01T19:52:38;11.43;;;2.70;;
34573;SDS011;20809;49.594;8.734;2023-02-01T19:55:43;7.65;;;2.30;;
34573;SDS011;20809;49.594;8.734;2023-02-01T19:58:44;7.82;;;2.83;;
34573;SDS011;20809;49.594;8.734;2023-02-01T20:01:45;10.57;;;2.42;;
34573;SDS011;20809;49.594;8.734;2023-02-01T20:04:46;15.27;;;4.95;;
34573;SDS011;20809;49.594;8.734;2023-02-01T20:07:47;19.67;;;6.90;;
34573;SDS011;20809;49.594;8.734;2023-02-01T20:10:48;12.73;;;2.80;;
34573;SDS011;20809;49.594;8.734;2023-02-01T20:13:49;10.93;;;2.42;;
34573;SDS011;20809;49.594;8.734;2023-02-01T20:16:49;12.07;;;2.15;;
34573;SDS011;20809;49.594;8.734;2023-02-01T20:19:50;12.82;;;2.58;;
34573;SDS011;20809;49.594;8.734;2023-02-01T20:22:51;13.65;;;4.00;;
34573;SDS011;20809;49.594;8.734;2023-02-01T20:25:53;19.73;;;3.35;;
34573;SDS011;20809;49.594;8.734;2023-02-01T20:28:53;11.27;;;2.95;;
34573;SDS011;20809;49.594;8.734;2023-02-01T20:31:54;12.52;;;2.85;;
34573;SDS011;20809;49.594;8.734;2023-02-01T20:34:55;13.50;;;3.08;;
34573;SDS011;20809;49.594;8.734;2023-02-01T20:37:56;12.88;;;3.03;;
34573;SDS011;20809;49.594;8.734;2023-02-01T20:41:04;12.07;;;3.13;;
34573;SDS011;20809;49.594;8.734;2023-02-01T20:44:08;8.73;;;2.75;;
34573;SDS011;20809;49.594;8.734;2023-02-01T20:47:08;14.00;;;3.30;;
34573;SDS011;20809;49.594;8.734;2023-02-01T20:50:09;13.15;;;2.78;;
34573;SDS011;20809;49.594;8.734;2023-02-01T20:53:10;12.57;;;2.22;;
34573;SDS011;20809;49.594;8.734;2023-02-01T20:56:11;12.48;;;2.75;;
34573;SDS011;20809;49.594;8.734;2023-02-01T20:59:13;11.73;;;2.00;;
34573;SDS011;20809;49.594;8.734;2023-02-01T21:02:14;11.13;;;2.70;;
34573;SDS011;20809;49.594;8.734;2023-02-01T21:05:15;11.02;;;2.13;;
34573;SDS011;20809;49.594;8.734;2023-02-01T21:08:16;12.75;;;4.50;;
34573;SDS011;20809;49.594;8.734;2023-02-01T21:11:18;16.63;;;3.53;;
34573;SDS011;20809;49.594;8.734;2023-02-01T21:14:19;13.48;;;2.67;;
34573;SDS011;20809;49.594;8.734;2023-02-01T21:17:20;12.23;;;2.58;;
34573;SDS011;20809;49.594;8.734;2023-02-01T21:20:21;10.18;;;2.70;;